Slotergracht — PDBP — position and weather

sailwx.info

Track history (hours):
 
Tides and Currents Weather Stations Pressure Air Temp Water Temp Dewpoint Dewpoint Depression Visibility Wind Speed Wind Dir Waves Ship Positions

Slotergracht

Last reported at 2014-Sep-30 17:17 UTC. Time now 2014-Sep-30 21:59 UTC.
Position N 50°34' E 000°17'.

Length 168 m; beam 25 m.

Type: Ship (hazmat cat A). MMSI: 246456000.

Date/timePositionNaut miles runAvg speedWind from/ knotsBaromVisibWave heightAir tempDewpointWater temp
2014-Sep-30 17:17N 50°34' E 000°17'1317.7
2014-Sep-30 16:33N 50°38' E 000°36'1816.6
2014-Sep-30 15:27N 50°49' E 000°59'3015.6
2014-Sep-30 13:34N 51°08' E 001°35'1817.8
2014-Sep-30 12:34N 51°22' E 001°52'1918.8
2014-Sep-30 11:33N 51°37' E 002°12'5317.0
2014-Sep-30 08:27N 52°03' E 003°26'1516.5
2014-Sep-30 07:33N 52°02' E 003°51'1212.5
2014-Sep-30 06:34N 51°58' E 004°09'9 9.1
2014-Sep-30 05:33N 51°54' E 004°23'3 2.7
2014-Sep-30 04:31N 51°54' E 004°27'0 0.0
2014-Sep-30 01:31N 51°54' E 004°27'0 0.0
2014-Sep-30 00:31N 51°54' E 004°27'0 0.0
2014-Sep-29 23:31N 51°54' E 004°27'0 0.0
2014-Sep-29 22:31N 51°54' E 004°27'0 0.0
2014-Sep-29 21:31N 51°54' E 004°27'0 0.0
2014-Sep-29 20:31N 51°54' E 004°27'0 0.0
2014-Sep-29 19:31N 51°54' E 004°27'0 0.0
2014-Sep-29 18:31N 51°54' E 004°27'0 0.0
2014-Sep-29 17:31N 51°54' E 004°27'0 0.0
2014-Sep-29 16:31N 51°54' E 004°27'0 0.0
2014-Sep-29 15:31N 51°54' E 004°27'0 0.0
2014-Sep-29 14:31N 51°54' E 004°27'0 0.0
2014-Sep-29 13:31N 51°54' E 004°27'0 0.0
2014-Sep-29 12:31N 51°54' E 004°27'0 0.0
2014-Sep-29 11:31N 51°54' E 004°27'0 0.0
2014-Sep-29 10:31N 51°54' E 004°27'0 0.0
2014-Sep-29 09:31N 51°54' E 004°27'0 0.0
2014-Sep-29 08:31N 51°54' E 004°27'0 0.0
2014-Sep-29 07:31N 51°54' E 004°27'0 0.0
2014-Sep-29 06:31N 51°54' E 004°27'0 0.0
2014-Sep-29 05:31N 51°54' E 004°27'0 0.0
2014-Sep-29 04:31N 51°54' E 004°27'0 0.0
2014-Sep-29 03:31N 51°54' E 004°27'0 0.0
2014-Sep-29 02:31N 51°54' E 004°27'0 0.0
2014-Sep-29 01:31N 51°54' E 004°27'0 0.0
2014-Sep-29 00:34N 51°54' E 004°27'0 0.0
2014-Sep-28 23:33N 51°54' E 004°27'0 0.0
2014-Sep-28 22:33N 51°54' E 004°27'0 0.0
2014-Sep-28 21:33N 51°54' E 004°27'0 0.0
2014-Sep-28 20:33N 51°54' E 004°27'0 0.0
2014-Sep-28 19:33N 51°54' E 004°27'0 0.0
2014-Sep-28 18:33N 51°54' E 004°27'0 0.0
2014-Sep-28 17:33N 51°54' E 004°27'0 0.0
2014-Sep-28 16:33N 51°54' E 004°27'0 0.0
2014-Sep-28 15:33N 51°54' E 004°27'0 0.0
2014-Sep-28 14:33N 51°54' E 004°27'0 0.0
2014-Sep-28 13:33N 51°54' E 004°27'0 0.0
2014-Sep-28 12:33N 51°54' E 004°27'0 0.0
2014-Sep-28 11:33N 51°54' E 004°27'0 0.0
2014-Sep-28 10:33N 51°54' E 004°27'0 0.0
2014-Sep-28 09:33N 51°54' E 004°27'0 0.0
2014-Sep-28 08:33N 51°54' E 004°27'0 0.0
2014-Sep-28 07:33N 51°54' E 004°27'0 0.0
2014-Sep-28 06:33N 51°54' E 004°27'0 0.0
2014-Sep-28 05:33N 51°54' E 004°27'0 0.0
2014-Sep-28 04:33N 51°54' E 004°27'0 0.0
2014-Sep-28 03:33N 51°54' E 004°27'0 0.0
2014-Sep-28 02:33N 51°54' E 004°27'0 0.0
2014-Sep-28 01:33N 51°54' E 004°27'0 0.0
2014-Sep-28 00:33N 51°54' E 004°27'0 0.0
2014-Sep-27 23:33N 51°54' E 004°27'0 0.0
2014-Sep-27 22:33N 51°54' E 004°27'0 0.0
2014-Sep-27 21:33N 51°54' E 004°27'0 0.0
2014-Sep-27 20:33N 51°54' E 004°27'0 0.0
2014-Sep-27 19:33N 51°54' E 004°27'0 0.0
2014-Sep-27 18:33N 51°54' E 004°27'0 0.0
2014-Sep-27 17:33N 51°54' E 004°27'0 0.0
2014-Sep-27 16:33N 51°54' E 004°27'0 0.0
2014-Sep-27 15:30N 51°54' E 004°27'0 0.0
2014-Sep-27 14:33N 51°54' E 004°27'1 0.5
2014-Sep-27 13:33N 51°54' E 004°26'6 6.5
2014-Sep-27 12:34N 51°54' E 004°16'10 9.5
2014-Sep-27 11:33N 51°59' E 004°03'1010.1
2014-Sep-27 10:34N 52°01' E 003°47'9 8.7
2014-Sep-27 09:34N 52°10' E 003°46'9 8.8
2014-Sep-27 08:33N 52°19' E 003°47'9 9.2
2014-Sep-27 07:33N 52°28' E 003°50'4112.9
2014-Sep-27 04:22N 53°06' E 004°16'2815.0
2014-Sep-27 02:30N 53°29' E 004°42'1617.3
2014-Sep-27 01:34N 53°35' E 005°07'1818.0
2014-Sep-27 00:33N 53°41' E 005°36'1817.2
2014-Sep-26 23:31N 53°46' E 006°05'1110.3
2014-Sep-26 22:28N 53°40' E 006°21'9 9.7
2014-Sep-26 21:33N 53°36' E 006°34'1212.2
2014-Sep-26 20:33N 53°29' E 006°50'2 1.7
2014-Sep-26 19:33N 53°27' E 006°49'0 0.0
2014-Sep-26 18:32N 53°27' E 006°49'0 0.0
2014-Sep-26 17:32N 53°27' E 006°49'0 0.0
2014-Sep-26 16:32N 53°27' E 006°49'0 0.0
2014-Sep-26 15:32N 53°27' E 006°49'0 0.0
2014-Sep-26 14:32N 53°27' E 006°49'0 0.0
2014-Sep-26 13:32N 53°27' E 006°49'0 0.0
2014-Sep-26 12:32N 53°27' E 006°49'0 0.0
2014-Sep-26 11:32N 53°27' E 006°49'0 0.0
2014-Sep-26 10:32N 53°27' E 006°49'0 0.0
2014-Sep-26 09:32N 53°27' E 006°49'0 0.0
2014-Sep-26 08:32N 53°27' E 006°49'0 0.0
2014-Sep-26 07:32N 53°27' E 006°49'0 0.0
2014-Sep-26 06:32N 53°27' E 006°49'2 1.9
2014-Sep-26 05:33N 53°29' E 006°50'1211.5
2014-Sep-26 04:33N 53°36' E 006°35'9 8.6
2014-Sep-26 03:30N 53°39' E 006°20'46 8.6
2014-Sep-25 22:06N 53°59' E 007°30'610.1
2014-Sep-25 21:33N 54°01' E 007°39'10 9.9
2014-Sep-25 20:33N 54°01' E 007°56'9 9.4
2014-Sep-25 19:33N 54°01' E 008°12'10 9.6
2014-Sep-25 18:33N 53°59' E 008°28'1414.2
2014-Sep-25 17:34N 53°51' E 008°48'1312.9
2014-Sep-25 16:33N 53°54' E 009°09'1 1.1
2014-Sep-25 15:33N 53°54' E 009°10'24 5.4
2014-Sep-25 11:07N 54°13' E 009°36'4 6.9
2014-Sep-25 10:30N 54°17' E 009°39'49 7.1
2014-Sep-25 03:31N 54°36' E 010°57'1212.1
2014-Sep-25 02:33N 54°34' E 011°17'1312.5
2014-Sep-25 01:33N 54°29' E 011°37'1312.8
2014-Sep-25 00:33N 54°26' E 011°59'1411.2
2014-Sep-24 23:17N 54°36' E 012°16'1013.4
2014-Sep-24 22:33N 54°42' E 012°30'1313.0
2014-Sep-24 21:32N 54°49' E 012°49'1513.2
2014-Sep-24 20:25N 54°54' E 013°14'1113.0
2014-Sep-24 19:33N 54°58' E 013°32'1313.3
2014-Sep-24 18:33N 55°02' E 013°53'1312.7
2014-Sep-24 17:33N 55°10' E 014°11'1313.2
2014-Sep-24 16:33N 55°20' E 014°26'1313.0
2014-Sep-24 15:33N 55°29' E 014°43'1514.9
2014-Sep-24 14:33N 55°37' E 015°05'4113.4
2014-Sep-24 11:28N 55°58' E 016°09'9112.8
2014-Sep-24 04:24N 57°16' E 017°32'1214.7
2014-Sep-24 03:33N 57°28' E 017°41'  
Track history (hours):
 
Tides and Currents Weather Stations Pressure Air Temp Water Temp Dewpoint Dewpoint Depression Visibility Wind Speed Wind Dir Waves Ship Positions

Slotergracht

Last reported at 2014-Sep-30 17:17 UTC. Time now 2014-Sep-30 21:59 UTC.
Position N 50°34' E 000°17'.

Length 168 m; beam 25 m.

Type: Ship (hazmat cat A). MMSI: 246456000.

Date/timePositionNaut miles runAvg speedWind from/ knotsBaromVisibWave heightAir tempDewpointWater temp
2014-Sep-30 17:17N 50°34' E 000°17'1317.7
2014-Sep-30 16:33N 50°38' E 000°36'1816.6
2014-Sep-30 15:27N 50°49' E 000°59'3015.6
2014-Sep-30 13:34N 51°08' E 001°35'1817.8
2014-Sep-30 12:34N 51°22' E 001°52'1918.8
2014-Sep-30 11:33N 51°37' E 002°12'5317.0
2014-Sep-30 08:27N 52°03' E 003°26'1516.5
2014-Sep-30 07:33N 52°02' E 003°51'1212.5
2014-Sep-30 06:34N 51°58' E 004°09'9 9.1
2014-Sep-30 05:33N 51°54' E 004°23'3 2.7
2014-Sep-30 04:31N 51°54' E 004°27'0 0.0
2014-Sep-30 01:31N 51°54' E 004°27'0 0.0
2014-Sep-30 00:31N 51°54' E 004°27'0 0.0
2014-Sep-29 23:31N 51°54' E 004°27'0 0.0
2014-Sep-29 22:31N 51°54' E 004°27'0 0.0
2014-Sep-29 21:31N 51°54' E 004°27'0 0.0
2014-Sep-29 20:31N 51°54' E 004°27'0 0.0
2014-Sep-29 19:31N 51°54' E 004°27'0 0.0
2014-Sep-29 18:31N 51°54' E 004°27'0 0.0
2014-Sep-29 17:31N 51°54' E 004°27'0 0.0
2014-Sep-29 16:31N 51°54' E 004°27'0 0.0
2014-Sep-29 15:31N 51°54' E 004°27'0 0.0
2014-Sep-29 14:31N 51°54' E 004°27'0 0.0
2014-Sep-29 13:31N 51°54' E 004°27'0 0.0
2014-Sep-29 12:31N 51°54' E 004°27'0 0.0
2014-Sep-29 11:31N 51°54' E 004°27'0 0.0
2014-Sep-29 10:31N 51°54' E 004°27'0 0.0
2014-Sep-29 09:31N 51°54' E 004°27'0 0.0
2014-Sep-29 08:31N 51°54' E 004°27'0 0.0
2014-Sep-29 07:31N 51°54' E 004°27'0 0.0
2014-Sep-29 06:31N 51°54' E 004°27'0 0.0
2014-Sep-29 05:31N 51°54' E 004°27'0 0.0
2014-Sep-29 04:31N 51°54' E 004°27'0 0.0
2014-Sep-29 03:31N 51°54' E 004°27'0 0.0
2014-Sep-29 02:31N 51°54' E 004°27'0 0.0
2014-Sep-29 01:31N 51°54' E 004°27'0 0.0
2014-Sep-29 00:34N 51°54' E 004°27'0 0.0
2014-Sep-28 23:33N 51°54' E 004°27'0 0.0
2014-Sep-28 22:33N 51°54' E 004°27'0 0.0
2014-Sep-28 21:33N 51°54' E 004°27'0 0.0
2014-Sep-28 20:33N 51°54' E 004°27'0 0.0
2014-Sep-28 19:33N 51°54' E 004°27'0 0.0
2014-Sep-28 18:33N 51°54' E 004°27'0 0.0
2014-Sep-28 17:33N 51°54' E 004°27'0 0.0
2014-Sep-28 16:33N 51°54' E 004°27'0 0.0
2014-Sep-28 15:33N 51°54' E 004°27'0 0.0
2014-Sep-28 14:33N 51°54' E 004°27'0 0.0
2014-Sep-28 13:33N 51°54' E 004°27'0 0.0
2014-Sep-28 12:33N 51°54' E 004°27'0 0.0
2014-Sep-28 11:33N 51°54' E 004°27'0 0.0
2014-Sep-28 10:33N 51°54' E 004°27'0 0.0
2014-Sep-28 09:33N 51°54' E 004°27'0 0.0
2014-Sep-28 08:33N 51°54' E 004°27'0 0.0
2014-Sep-28 07:33N 51°54' E 004°27'0 0.0
2014-Sep-28 06:33N 51°54' E 004°27'0 0.0
2014-Sep-28 05:33N 51°54' E 004°27'0 0.0
2014-Sep-28 04:33N 51°54' E 004°27'0 0.0
2014-Sep-28 03:33N 51°54' E 004°27'0 0.0
2014-Sep-28 02:33N 51°54' E 004°27'0 0.0
2014-Sep-28 01:33N 51°54' E 004°27'0 0.0
2014-Sep-28 00:33N 51°54' E 004°27'0 0.0
2014-Sep-27 23:33N 51°54' E 004°27'0 0.0
2014-Sep-27 22:33N 51°54' E 004°27'0 0.0
2014-Sep-27 21:33N 51°54' E 004°27'0 0.0
2014-Sep-27 20:33N 51°54' E 004°27'0 0.0
2014-Sep-27 19:33N 51°54' E 004°27'0 0.0
2014-Sep-27 18:33N 51°54' E 004°27'0 0.0
2014-Sep-27 17:33N 51°54' E 004°27'0 0.0
2014-Sep-27 16:33N 51°54' E 004°27'0 0.0
2014-Sep-27 15:30N 51°54' E 004°27'0 0.0
2014-Sep-27 14:33N 51°54' E 004°27'1 0.5
2014-Sep-27 13:33N 51°54' E 004°26'6 6.5
2014-Sep-27 12:34N 51°54' E 004°16'10 9.5
2014-Sep-27 11:33N 51°59' E 004°03'1010.1
2014-Sep-27 10:34N 52°01' E 003°47'9 8.7
2014-Sep-27 09:34N 52°10' E 003°46'9 8.8
2014-Sep-27 08:33N 52°19' E 003°47'9 9.2
2014-Sep-27 07:33N 52°28' E 003°50'4112.9
2014-Sep-27 04:22N 53°06' E 004°16'2815.0
2014-Sep-27 02:30N 53°29' E 004°42'1617.3
2014-Sep-27 01:34N 53°35' E 005°07'1818.0
2014-Sep-27 00:33N 53°41' E 005°36'1817.2
2014-Sep-26 23:31N 53°46' E 006°05'1110.3
2014-Sep-26 22:28N 53°40' E 006°21'9 9.7
2014-Sep-26 21:33N 53°36' E 006°34'1212.2
2014-Sep-26 20:33N 53°29' E 006°50'2 1.7
2014-Sep-26 19:33N 53°27' E 006°49'0 0.0
2014-Sep-26 18:32N 53°27' E 006°49'0 0.0
2014-Sep-26 17:32N 53°27' E 006°49'0 0.0
2014-Sep-26 16:32N 53°27' E 006°49'0 0.0
2014-Sep-26 15:32N 53°27' E 006°49'0 0.0
2014-Sep-26 14:32N 53°27' E 006°49'0 0.0
2014-Sep-26 13:32N 53°27' E 006°49'0 0.0
2014-Sep-26 12:32N 53°27' E 006°49'0 0.0
2014-Sep-26 11:32N 53°27' E 006°49'0 0.0
2014-Sep-26 10:32N 53°27' E 006°49'0 0.0
2014-Sep-26 09:32N 53°27' E 006°49'0 0.0
2014-Sep-26 08:32N 53°27' E 006°49'0 0.0
2014-Sep-26 07:32N 53°27' E 006°49'0 0.0
2014-Sep-26 06:32N 53°27' E 006°49'2 1.9
2014-Sep-26 05:33N 53°29' E 006°50'1211.5
2014-Sep-26 04:33N 53°36' E 006°35'9 8.6
2014-Sep-26 03:30N 53°39' E 006°20'46 8.6
2014-Sep-25 22:06N 53°59' E 007°30'610.1
2014-Sep-25 21:33N 54°01' E 007°39'10 9.9
2014-Sep-25 20:33N 54°01' E 007°56'9 9.4
2014-Sep-25 19:33N 54°01' E 008°12'10 9.6
2014-Sep-25 18:33N 53°59' E 008°28'1414.2
2014-Sep-25 17:34N 53°51' E 008°48'1312.9
2014-Sep-25 16:33N 53°54' E 009°09'1 1.1
2014-Sep-25 15:33N 53°54' E 009°10'24 5.4
2014-Sep-25 11:07N 54°13' E 009°36'4 6.9
2014-Sep-25 10:30N 54°17' E 009°39'49 7.1
2014-Sep-25 03:31N 54°36' E 010°57'1212.1
2014-Sep-25 02:33N 54°34' E 011°17'1312.5
2014-Sep-25 01:33N 54°29' E 011°37'1312.8
2014-Sep-25 00:33N 54°26' E 011°59'1411.2
2014-Sep-24 23:17N 54°36' E 012°16'1013.4
2014-Sep-24 22:33N 54°42' E 012°30'1313.0
2014-Sep-24 21:32N 54°49' E 012°49'1513.2
2014-Sep-24 20:25N 54°54' E 013°14'1113.0
2014-Sep-24 19:33N 54°58' E 013°32'1313.3
2014-Sep-24 18:33N 55°02' E 013°53'1312.7
2014-Sep-24 17:33N 55°10' E 014°11'1313.2
2014-Sep-24 16:33N 55°20' E 014°26'1313.0
2014-Sep-24 15:33N 55°29' E 014°43'1514.9
2014-Sep-24 14:33N 55°37' E 015°05'4113.4
2014-Sep-24 11:28N 55°58' E 016°09'9112.8
2014-Sep-24 04:24N 57°16' E 017°32'1214.7
2014-Sep-24 03:33N 57°28' E 017°41'  

Dump ship's entire track history